createdAt,value
2023-01-12T00:01:35.008Z,4.40
2023-01-12T00:06:01.244Z,4.40
2023-01-12T00:10:23.106Z,4.40
2023-01-12T00:14:45.381Z,4.30
2023-01-12T00:19:17.100Z,4.00
2023-01-12T00:23:45.522Z,3.80
2023-01-12T00:28:07.624Z,3.80
2023-01-12T00:32:29.883Z,3.90
2023-01-12T00:36:52.401Z,3.90
2023-01-12T00:41:37.202Z,4.00
2023-01-12T00:45:59.104Z,4.20
2023-01-12T00:50:21.107Z,4.40
2023-01-12T00:54:43.464Z,4.50
2023-01-12T00:59:06.815Z,4.80
2023-01-12T01:03:29.403Z,4.90
2023-01-12T01:07:51.421Z,5.00
2023-01-12T01:12:13.920Z,4.80
2023-01-12T01:16:36.281Z,4.80
2023-01-12T01:20:58.740Z,4.80
2023-01-12T01:25:20.608Z,4.80
2023-01-12T01:29:42.645Z,4.90
2023-01-12T01:34:04.701Z,5.00
2023-01-12T01:38:27.284Z,5.20
2023-01-12T01:42:49.244Z,5.30
2023-01-12T01:47:43.122Z,5.50
2023-01-12T01:52:14.227Z,5.70
2023-01-12T01:56:37.561Z,5.80
2023-01-12T02:00:59.972Z,5.90
2023-01-12T02:05:27.764Z,5.80
2023-01-12T02:09:49.850Z,5.80
2023-01-12T02:14:31.678Z,5.80
2023-01-12T02:19:14.441Z,5.70
2023-01-12T02:24:07.763Z,5.60
2023-01-12T02:29:23.560Z,5.50
2023-01-12T02:34:04.045Z,5.40
2023-01-12T02:38:45.743Z,5.40
2023-01-12T02:43:43.243Z,5.30
2023-01-12T02:48:26.089Z,5.40
2023-01-12T02:52:57.820Z,5.50
2023-01-12T02:57:23.160Z,5.60
2023-01-12T03:01:49.788Z,5.70
2023-01-12T03:06:17.445Z,5.80
2023-01-12T03:11:05.760Z,5.80
2023-01-12T03:15:29.128Z,5.80
2023-01-12T03:19:52.984Z,5.80
2023-01-12T03:24:25.323Z,5.80
2023-01-12T03:28:55.341Z,5.70
2023-01-12T03:33:17.612Z,5.80
2023-01-12T03:37:59.561Z,5.80
2023-01-12T03:42:55.400Z,5.80
2023-01-12T03:47:24.401Z,6.00
2023-01-12T03:51:49.273Z,6.10
2023-01-12T03:56:14.360Z,6.10
2023-01-12T04:00:36.297Z,6.20
2023-01-12T04:04:59.043Z,6.20
2023-01-12T04:09:23.037Z,6.30
2023-01-12T04:13:45.123Z,6.40
2023-01-12T04:18:07.408Z,6.40
2023-01-12T04:22:44.793Z,6.40
2023-01-12T04:27:07.235Z,6.40
2023-01-12T04:31:29.391Z,6.50
2023-01-12T04:35:51.475Z,6.50
2023-01-12T04:40:16.703Z,6.70
2023-01-12T04:44:38.876Z,6.70
2023-01-12T04:49:00.875Z,6.60
2023-01-12T04:53:24.762Z,6.50
2023-01-12T04:57:47.127Z,6.50
2023-01-12T05:02:08.964Z,6.60
2023-01-12T05:06:31.117Z,6.60
2023-01-12T05:10:57.059Z,6.60
2023-01-12T05:15:19.235Z,6.60
2023-01-12T05:19:41.874Z,6.60
2023-01-12T05:24:04.381Z,6.60
2023-01-12T05:28:27.439Z,6.60
2023-01-12T05:32:49.675Z,6.70
2023-01-12T05:37:11.800Z,6.70
2023-01-12T05:41:33.956Z,6.80
2023-01-12T05:45:56.136Z,6.90
2023-01-12T05:50:18.258Z,6.90
2023-01-12T05:55:00.073Z,6.90
2023-01-12T05:59:21.901Z,7.00
2023-01-12T06:03:44.035Z,7.00
2023-01-12T06:08:06.144Z,6.80
2023-01-12T06:12:46.995Z,6.70
2023-01-12T06:17:09.197Z,6.60
2023-01-12T06:21:33.375Z,6.50
2023-01-12T06:25:55.433Z,6.40
2023-01-12T06:30:18.179Z,6.50
2023-01-12T06:34:40.498Z,6.60
2023-01-12T06:39:03.570Z,6.50
2023-01-12T06:43:25.792Z,6.60
2023-01-12T06:47:52.598Z,6.80
2023-01-12T06:52:14.601Z,6.90
2023-01-12T06:56:36.737Z,7.00
2023-01-12T07:01:03.308Z,7.00
2023-01-12T07:05:25.516Z,7.10
2023-01-12T07:09:47.560Z,7.10
2023-01-12T07:14:09.777Z,7.10
2023-01-12T07:18:31.908Z,7.20
2023-01-12T07:22:55.866Z,7.20
2023-01-12T07:27:17.677Z,7.20
2023-01-12T07:31:39.818Z,7.20
2023-01-12T07:36:02.756Z,7.30
2023-01-12T07:40:24.909Z,7.30
2023-01-12T07:44:47.057Z,7.40
2023-01-12T07:49:09.157Z,7.50
2023-01-12T07:53:31.239Z,7.50
2023-01-12T07:57:59.654Z,7.60
2023-01-12T08:02:21.864Z,7.60
2023-01-12T08:06:44.119Z,7.70
2023-01-12T08:11:08.776Z,7.70
2023-01-12T08:15:37.788Z,7.80
2023-01-12T08:20:10.969Z,7.80
2023-01-12T08:24:41.081Z,7.90
2023-01-12T08:29:34.215Z,7.80
2023-01-12T08:33:56.418Z,7.90
2023-01-12T08:38:19.580Z,7.90
2023-01-12T08:42:41.989Z,7.90
2023-01-12T08:47:27.212Z,8.00
2023-01-12T08:51:49.349Z,8.00
2023-01-12T08:56:12.117Z,8.10
2023-01-12T09:00:34.701Z,8.10
2023-01-12T09:04:57.056Z,8.10
2023-01-12T09:09:21.599Z,8.10
2023-01-12T09:13:43.577Z,8.10
2023-01-12T09:18:05.876Z,8.10
2023-01-12T09:22:29.894Z,8.10
2023-01-12T09:26:51.719Z,8.20
2023-01-12T09:31:19.120Z,8.20
2023-01-12T09:35:44.628Z,8.30
2023-01-12T09:40:08.138Z,8.20
2023-01-12T09:45:01.557Z,8.30
2023-01-12T09:49:32.819Z,8.30
2023-01-12T09:53:54.877Z,8.40
2023-01-12T09:58:56.856Z,8.40
2023-01-12T10:03:38.906Z,8.50
2023-01-12T10:08:01.601Z,8.50
2023-01-12T10:12:37.520Z,8.60
2023-01-12T10:17:22.950Z,8.60
2023-01-12T10:21:45.441Z,8.70
2023-01-12T10:26:23.816Z,8.90
2023-01-12T10:30:49.093Z,9.00
2023-01-12T10:35:19.244Z,9.10
2023-01-12T10:39:43.739Z,9.10
2023-01-12T10:44:16.959Z,9.20
2023-01-12T10:48:52.047Z,9.20
2023-01-12T10:53:17.637Z,9.20
2023-01-12T10:57:44.819Z,9.30
2023-01-12T11:02:09.455Z,9.30
2023-01-12T11:06:33.440Z,9.10
2023-01-12T11:10:55.228Z,8.80
2023-01-12T11:15:19.369Z,8.50
2023-01-12T11:19:44.659Z,8.50
2023-01-12T11:24:57.484Z,8.50
2023-01-12T11:29:58.863Z,8.60
2023-01-12T11:34:28.377Z,8.70
2023-01-12T11:38:56.014Z,8.80
2023-01-12T11:43:51.412Z,8.80
2023-01-12T11:48:30.638Z,8.70
2023-01-12T11:52:55.017Z,8.60
2023-01-12T11:57:35.458Z,8.60
2023-01-12T12:02:55.320Z,8.60
2023-01-12T12:08:01.751Z,8.50
2023-01-12T12:12:30.279Z,8.50
2023-01-12T12:17:09.637Z,8.40
2023-01-12T12:21:49.958Z,8.40
2023-01-12T12:26:36.425Z,8.40
2023-01-12T12:31:37.677Z,8.40
2023-01-12T12:36:03.064Z,8.30
2023-01-12T12:41:37.706Z,8.20
2023-01-12T12:46:31.632Z,8.20
2023-01-12T12:51:08.789Z,8.20
2023-01-12T12:55:31.868Z,8.10
2023-01-12T13:00:03.312Z,8.10
2023-01-12T13:04:43.448Z,8.00
2023-01-12T13:09:17.876Z,8.00
2023-01-12T13:14:03.445Z,8.00
2023-01-12T13:18:48.661Z,8.20
2023-01-12T13:23:48.983Z,8.20
2023-01-12T13:28:19.999Z,8.30
2023-01-12T13:32:49.945Z,8.20
2023-01-12T13:37:47.916Z,8.10
2023-01-12T13:42:40.883Z,8.20
2023-01-12T13:47:35.316Z,8.20
2023-01-12T13:52:06.965Z,8.30
2023-01-12T13:56:29.516Z,8.30
2023-01-12T14:01:01.508Z,8.30
2023-01-12T14:06:23.297Z,8.20
2023-01-12T14:11:41.400Z,8.10
2023-01-12T14:16:34.439Z,8.10
2023-01-12T14:20:59.323Z,8.10
2023-01-12T14:25:26.219Z,8.00
2023-01-12T14:29:48.440Z,8.00
2023-01-12T14:34:38.705Z,8.00
2023-01-12T14:39:01.610Z,8.00
2023-01-12T14:43:42.592Z,8.10
2023-01-12T14:48:24.138Z,8.10
2023-01-12T14:52:48.322Z,8.10
2023-01-12T14:57:38.303Z,8.10
2023-01-12T15:02:18.445Z,8.00
2023-01-12T15:06:43.027Z,8.00
2023-01-12T15:11:10.294Z,8.10
2023-01-12T15:15:51.820Z,8.00
2023-01-12T15:20:49.554Z,8.00
2023-01-12T15:25:37.582Z,8.00
2023-01-12T15:29:59.365Z,8.00
2023-01-12T15:34:21.949Z,8.00
2023-01-12T15:38:44.492Z,8.00
2023-01-12T15:43:18.209Z,8.00
2023-01-12T15:47:40.494Z,8.00
2023-01-12T15:52:03.581Z,8.00
2023-01-12T15:56:25.897Z,8.00
2023-01-12T16:00:48.184Z,8.00
2023-01-12T16:05:12.085Z,8.00
2023-01-12T16:09:34.299Z,8.10
2023-01-12T16:13:57.747Z,8.10
2023-01-12T16:18:19.997Z,8.20
2023-01-12T16:22:42.778Z,8.20
2023-01-12T16:27:05.374Z,8.20
2023-01-12T16:31:28.047Z,8.20
2023-01-12T16:35:50.660Z,8.20
2023-01-12T16:40:13.526Z,8.20
2023-01-12T16:44:39.481Z,8.30
2023-01-12T16:49:04.285Z,8.30
2023-01-12T16:53:26.814Z,8.30
2023-01-12T16:57:49.120Z,8.30
2023-01-12T17:02:16.065Z,8.30
2023-01-12T17:06:40.573Z,8.30
2023-01-12T17:11:14.717Z,8.40
2023-01-12T17:15:36.928Z,8.40
2023-01-12T17:19:59.741Z,8.50
2023-01-12T17:24:23.237Z,8.50
2023-01-12T17:28:47.157Z,8.50
2023-01-12T17:33:09.448Z,8.50
2023-01-12T17:37:32.153Z,8.40
2023-01-12T17:42:13.254Z,8.40
2023-01-12T17:46:36.020Z,8.40
2023-01-12T17:50:58.019Z,8.40
2023-01-12T17:55:22.199Z,8.40
2023-01-12T17:59:44.921Z,8.50
2023-01-12T18:04:07.055Z,8.50
2023-01-12T18:08:29.694Z,8.50
2023-01-12T18:12:51.822Z,8.50
2023-01-12T18:17:13.913Z,8.50
2023-01-12T18:21:36.055Z,8.50
2023-01-12T18:26:06.741Z,8.50
2023-01-12T18:30:29.173Z,8.50
2023-01-12T18:34:51.739Z,8.50
2023-01-12T18:39:18.485Z,8.60
2023-01-12T18:43:42.296Z,8.60
2023-01-12T18:48:24.242Z,8.60
2023-01-12T18:53:05.475Z,8.70
2023-01-12T18:57:30.651Z,8.60
2023-01-12T19:01:52.764Z,8.70
2023-01-12T19:06:40.996Z,8.70
2023-01-12T19:11:15.404Z,8.70
2023-01-12T19:15:57.145Z,8.70
2023-01-12T19:20:21.357Z,8.70
2023-01-12T19:25:02.900Z,8.60
2023-01-12T19:29:25.198Z,8.60
2023-01-12T19:33:47.436Z,8.60
2023-01-12T19:38:10.337Z,8.50
2023-01-12T19:42:52.328Z,8.50
2023-01-12T19:47:14.411Z,8.60
2023-01-12T19:51:36.954Z,8.60
2023-01-12T19:55:59.716Z,8.70
2023-01-12T20:00:23.748Z,8.70
2023-01-12T20:04:45.838Z,8.70
2023-01-12T20:09:11.893Z,8.70
2023-01-12T20:13:35.816Z,8.80
2023-01-12T20:18:03.157Z,8.80
2023-01-12T20:22:25.253Z,8.80
2023-01-12T20:26:47.836Z,8.80
2023-01-12T20:31:13.223Z,8.80
2023-01-12T20:35:38.567Z,8.80
2023-01-12T20:40:02.784Z,8.80
2023-01-12T20:44:28.277Z,8.80
2023-01-12T20:48:50.790Z,8.80
2023-01-12T20:53:14.700Z,8.80
2023-01-12T20:57:40.185Z,8.80
2023-01-12T21:02:02.762Z,8.80
2023-01-12T21:06:25.015Z,8.70
2023-01-12T21:10:53.122Z,8.70
2023-01-12T21:15:15.561Z,8.70
2023-01-12T21:19:38.094Z,8.70
2023-01-12T21:24:00.151Z,8.70
2023-01-12T21:28:23.752Z,8.70
2023-01-12T21:32:46.707Z,8.70
2023-01-12T21:37:08.707Z,8.70
2023-01-12T21:41:52.275Z,8.70
2023-01-12T21:46:14.546Z,8.70
2023-01-12T21:50:37.670Z,8.70
2023-01-12T21:55:00.128Z,8.70
2023-01-12T21:59:22.553Z,8.70
2023-01-12T22:03:45.325Z,8.70
2023-01-12T22:08:07.657Z,8.70
2023-01-12T22:12:29.834Z,8.70
2023-01-12T22:16:52.157Z,8.70
2023-01-12T22:21:14.193Z,8.70
2023-01-12T22:25:37.715Z,8.70
2023-01-12T22:30:01.493Z,8.60
2023-01-12T22:34:25.173Z,8.60
2023-01-12T22:38:47.273Z,8.60
2023-01-12T22:43:29.513Z,8.60
2023-01-12T22:47:56.191Z,8.70
2023-01-12T22:52:18.457Z,8.70
2023-01-12T22:56:40.753Z,8.70
2023-01-12T23:01:09.445Z,8.70
2023-01-12T23:05:43.285Z,8.80
2023-01-12T23:10:06.812Z,8.80
2023-01-12T23:14:29.266Z,8.90
2023-01-12T23:18:52.009Z,8.90
2023-01-12T23:23:17.997Z,8.90
2023-01-12T23:27:40.058Z,8.90
2023-01-12T23:32:02.361Z,8.90
2023-01-12T23:36:28.023Z,8.90
2023-01-12T23:40:51.324Z,8.80
2023-01-12T23:45:14.129Z,8.70
2023-01-12T23:49:36.340Z,8.70
2023-01-12T23:54:01.316Z,8.60
2023-01-12T23:58:25.426Z,8.60
